Time;durP1;ratioP1;P1;durP2;ratioP2;P2;SDS_P1;SDS_P2;PMS_P1;PMS_P2;Temp;Humidity;BMP_temperature;BMP_pressure;BME280_temperature;BME280_humidity;BME280_pressure;Samples;Min_cycle;Max_cycle;Signal;HPM_P1;HPM_P2
2022/03/03 00:00:32;;;;;;;18.08;14.20;;;;;;;;;;5083492;28;20202;-68
2022/03/03 00:02:58;;;;;;;18.40;13.40;;;;;;;;;;5083783;28;20203;-68
2022/03/03 00:05:24;;;;;;;27.42;14.27;;;;;;;;;;5083534;28;20219;-68
2022/03/03 00:07:51;;;;;;;20.65;14.77;;;;;;;;;;5083132;28;20380;-68
2022/03/03 00:10:18;;;;;;;19.77;14.25;;;;;;;;;;5083327;28;20204;-68
2022/03/03 00:12:45;;;;;;;20.65;13.57;;;;;;;;;;5083155;28;20506;-68
2022/03/03 00:15:11;;;;;;;21.42;14.05;;;;;;;;;;5083100;28;20531;-68
2022/03/03 00:17:37;;;;;;;20.35;13.82;;;;;;;;;;5082706;28;20268;-68
2022/03/03 00:20:04;;;;;;;18.58;13.90;;;;;;;;;;5083157;28;20512;-67
2022/03/03 00:22:30;;;;;;;16.95;13.68;;;;;;;;;;5082925;28;20196;-67
2022/03/03 00:24:57;;;;;;;23.10;14.95;;;;;;;;;;5083026;28;20196;-68
2022/03/03 00:27:24;;;;;;;19.73;14.23;;;;;;;;;;5082490;28;20201;-68
2022/03/03 00:29:52;;;;;;;25.02;13.43;;;;;;;;;;5082808;28;20210;-68
2022/03/03 00:32:19;;;;;;;24.50;15.25;;;;;;;;;;5082913;28;20249;-68
2022/03/03 00:34:45;;;;;;;20.05;14.20;;;;;;;;;;5082825;28;20254;-68
2022/03/03 00:37:11;;;;;;;21.48;14.80;;;;;;;;;;5082490;28;20361;-67
2022/03/03 00:39:38;;;;;;;20.58;14.18;;;;;;;;;;5082728;28;20201;-67
2022/03/03 00:42:04;;;;;;;20.48;14.38;;;;;;;;;;5082611;28;20203;-67
2022/03/03 00:44:32;;;;;;;18.20;13.98;;;;;;;;;;5082607;28;20198;-67
2022/03/03 00:46:58;;;;;;;20.20;14.27;;;;;;;;;;5082255;28;20492;-67
2022/03/03 00:49:24;;;;;;;17.60;13.35;;;;;;;;;;5082740;28;20219;-67
2022/03/03 00:51:51;;;;;;;23.60;14.80;;;;;;;;;;5082770;28;20210;-67
2022/03/03 00:54:17;;;;;;;23.77;15.07;;;;;;;;;;5082312;28;20204;-67
2022/03/03 00:56:44;;;;;;;19.13;13.93;;;;;;;;;;5082316;28;20283;-67
2022/03/03 00:59:10;;;;;;;20.77;14.93;;;;;;;;;;5082098;28;20196;-68
2022/03/03 01:01:38;;;;;;;21.65;14.52;;;;;;;;;;5082366;28;20241;-67
2022/03/03 01:04:04;;;;;;;25.02;15.93;;;;;;;;;;5082278;28;20203;-67
2022/03/03 01:06:31;;;;;;;24.30;14.95;;;;;;;;;;5082179;28;20218;-67
2022/03/03 01:08:57;;;;;;;18.45;14.68;;;;;;;;;;5082320;28;20539;-68
2022/03/03 01:11:23;;;;;;;22.65;14.95;;;;;;;;;;5082209;28;20210;-67
2022/03/03 01:13:49;;;;;;;23.92;15.82;;;;;;;;;;5082127;28;20203;-67
2022/03/03 01:16:16;;;;;;;21.20;14.52;;;;;;;;;;5082118;28;20557;-67
2022/03/03 01:18:43;;;;;;;22.13;14.65;;;;;;;;;;5082225;28;20206;-67
2022/03/03 01:21:10;;;;;;;23.63;15.80;;;;;;;;;;5082025;28;20224;-67
2022/03/03 01:23:36;;;;;;;20.90;14.90;;;;;;;;;;5082246;28;20393;-67
2022/03/03 01:26:02;;;;;;;17.77;13.73;;;;;;;;;;5081909;28;20192;-67
2022/03/03 01:28:29;;;;;;;19.73;13.70;;;;;;;;;;5081990;28;20323;-67
2022/03/03 01:30:55;;;;;;;20.90;14.90;;;;;;;;;;5082259;28;20197;-67
2022/03/03 01:33:21;;;;;;;20.83;14.35;;;;;;;;;;5081985;28;20219;-67
2022/03/03 01:35:49;;;;;;;19.08;14.02;;;;;;;;;;5081943;28;20216;-67
2022/03/03 01:38:15;;;;;;;29.52;15.00;;;;;;;;;;5081689;28;20197;-68
2022/03/03 01:40:41;;;;;;;19.70;14.25;;;;;;;;;;5081940;28;20196;-68
2022/03/03 01:43:08;;;;;;;19.35;14.38;;;;;;;;;;5081806;28;20215;-67
2022/03/03 01:45:34;;;;;;;21.20;15.15;;;;;;;;;;5081777;28;20365;-67
2022/03/03 01:48:00;;;;;;;22.58;15.80;;;;;;;;;;5081743;28;20196;-67
2022/03/03 01:50:27;;;;;;;20.70;14.95;;;;;;;;;;5081795;28;20201;-67
2022/03/03 01:52:54;;;;;;;23.45;15.35;;;;;;;;;;5081849;28;20200;-68
2022/03/03 01:55:21;;;;;;;24.42;15.95;;;;;;;;;;5081783;28;20535;-67
2022/03/03 01:57:48;;;;;;;25.35;16.10;;;;;;;;;;5081418;28;20406;-67
2022/03/03 02:00:14;;;;;;;25.55;16.38;;;;;;;;;;5081703;28;20204;-67
2022/03/03 02:02:41;;;;;;;28.80;16.55;;;;;;;;;;5081617;28;20196;-67
2022/03/03 02:05:08;;;;;;;23.75;15.88;;;;;;;;;;5081164;28;20540;-67
2022/03/03 02:07:34;;;;;;;24.88;15.77;;;;;;;;;;5081701;28;20557;-68
2022/03/03 02:10:03;;;;;;;23.90;16.48;;;;;;;;;;5081724;28;20517;-67
2022/03/03 02:12:30;;;;;;;26.08;16.90;;;;;;;;;;5081544;28;20409;-67
2022/03/03 02:14:57;;;;;;;25.95;16.85;;;;;;;;;;5083289;28;20266;-68
2022/03/03 02:17:23;;;;;;;23.70;16.55;;;;;;;;;;5085021;28;20267;-67
2022/03/03 02:19:50;;;;;;;23.55;16.23;;;;;;;;;;5085365;28;20197;-67
2022/03/03 02:22:17;;;;;;;26.33;15.27;;;;;;;;;;5085335;28;20205;-67
2022/03/03 02:24:44;;;;;;;21.40;15.38;;;;;;;;;;5085227;28;20197;-68
2022/03/03 02:27:11;;;;;;;24.67;15.70;;;;;;;;;;5084841;28;20204;-67
2022/03/03 02:29:37;;;;;;;29.77;15.98;;;;;;;;;;5085226;28;20196;-67
2022/03/03 02:32:04;;;;;;;22.98;15.20;;;;;;;;;;5085031;28;20202;-67
2022/03/03 02:34:31;;;;;;;28.23;15.70;;;;;;;;;;5085483;28;20500;-67
2022/03/03 02:36:57;;;;;;;25.73;15.77;;;;;;;;;;5084905;28;20226;-67
2022/03/03 02:39:25;;;;;;;26.02;16.52;;;;;;;;;;5085062;28;20197;-67
2022/03/03 02:41:51;;;;;;;20.92;15.88;;;;;;;;;;5085016;28;20545;-67
2022/03/03 02:44:18;;;;;;;23.33;15.75;;;;;;;;;;5084759;28;20215;-67
2022/03/03 02:46:44;;;;;;;24.25;15.35;;;;;;;;;;5084595;28;20206;-67
2022/03/03 02:49:10;;;;;;;21.55;15.15;;;;;;;;;;5084813;28;20452;-67
2022/03/03 02:51:37;;;;;;;21.70;16.20;;;;;;;;;;5084764;28;20268;-67
2022/03/03 02:54:03;;;;;;;26.08;15.23;;;;;;;;;;5084602;28;20197;-67
2022/03/03 02:56:31;;;;;;;22.85;16.05;;;;;;;;;;5084772;28;20289;-67
2022/03/03 02:58:56;;;;;;;20.33;14.88;;;;;;;;;;5084548;28;20196;-67
2022/03/03 03:01:23;;;;;;;22.65;15.55;;;;;;;;;;5084835;28;20223;-67
2022/03/03 03:03:49;;;;;;;22.60;15.50;;;;;;;;;;5084743;28;20196;-67
2022/03/03 03:06:16;;;;;;;22.23;15.60;;;;;;;;;;5084239;28;20554;-67
2022/03/03 03:08:42;;;;;;;23.15;15.25;;;;;;;;;;5084527;28;20204;-67
2022/03/03 03:11:09;;;;;;;26.63;16.48;;;;;;;;;;5084339;28;20503;-67
2022/03/03 03:13:36;;;;;;;22.98;16.25;;;;;;;;;;5084384;28;20557;-67
2022/03/03 03:16:04;;;;;;;21.65;15.95;;;;;;;;;;5084063;28;20236;-67
2022/03/03 03:18:30;;;;;;;22.77;16.33;;;;;;;;;;5084069;28;20215;-67
2022/03/03 03:20:57;;;;;;;25.38;15.48;;;;;;;;;;5084290;28;20203;-67
2022/03/03 03:23:23;;;;;;;25.25;16.05;;;;;;;;;;5084282;28;20204;-67
2022/03/03 03:25:50;;;;;;;23.35;15.75;;;;;;;;;;5083605;28;20198;-67
2022/03/03 03:28:17;;;;;;;23.50;15.80;;;;;;;;;;5083751;28;20203;-67
2022/03/03 03:30:45;;;;;;;20.95;15.55;;;;;;;;;;5084300;28;20222;-67
2022/03/03 03:33:11;;;;;;;20.08;14.85;;;;;;;;;;5084136;28;20196;-67
2022/03/03 03:35:38;;;;;;;22.92;14.43;;;;;;;;;;5084288;28;20581;-67
2022/03/03 03:38:04;;;;;;;24.95;16.25;;;;;;;;;;5083743;28;20200;-67
2022/03/03 03:40:31;;;;;;;24.02;16.60;;;;;;;;;;5083959;28;20197;-67
2022/03/03 03:42:57;;;;;;;23.38;16.50;;;;;;;;;;5083668;28;20204;-67
2022/03/03 03:45:23;;;;;;;26.70;16.20;;;;;;;;;;5084030;28;20215;-67
2022/03/03 03:47:51;;;;;;;25.08;15.85;;;;;;;;;;5083601;28;20204;-67
2022/03/03 03:50:17;;;;;;;25.67;16.02;;;;;;;;;;5083772;28;20192;-67
2022/03/03 03:52:43;;;;;;;25.20;15.65;;;;;;;;;;5083657;28;20204;-67
2022/03/03 03:55:11;;;;;;;24.08;16.00;;;;;;;;;;5083525;28;20287;-68
2022/03/03 03:57:38;;;;;;;22.45;16.70;;;;;;;;;;5083618;28;20496;-67
2022/03/03 04:00:06;;;;;;;24.85;15.57;;;;;;;;;;5083652;28;20272;-67
2022/03/03 04:02:33;;;;;;;25.50;16.30;;;;;;;;;;5083508;28;20471;-67
2022/03/03 04:05:01;;;;;;;28.50;16.15;;;;;;;;;;5083362;28;20216;-67
2022/03/03 04:07:27;;;;;;;23.75;16.27;;;;;;;;;;5083125;28;20220;-67
2022/03/03 04:09:53;;;;;;;25.42;16.60;;;;;;;;;;5083095;28;20196;-67
2022/03/03 04:12:19;;;;;;;24.50;16.23;;;;;;;;;;5083222;28;20644;-68
2022/03/03 04:14:46;;;;;;;26.10;16.52;;;;;;;;;;5083333;28;20291;-67
2022/03/03 04:17:12;;;;;;;25.13;16.02;;;;;;;;;;5082884;28;20228;-67
2022/03/03 04:19:39;;;;;;;22.67;15.80;;;;;;;;;;5083134;28;20382;-67
2022/03/03 04:22:07;;;;;;;26.98;16.45;;;;;;;;;;5083702;28;20235;-67
2022/03/03 04:24:33;;;;;;;19.85;15.23;;;;;;;;;;5082945;28;20512;-67
2022/03/03 04:26:59;;;;;;;26.92;17.27;;;;;;;;;;5083141;28;20192;-67
2022/03/03 04:29:26;;;;;;;30.40;18.23;;;;;;;;;;5083179;28;20201;-67
2022/03/03 04:31:53;;;;;;;24.40;16.95;;;;;;;;;;5082907;28;20196;-67
2022/03/03 04:34:20;;;;;;;20.92;15.57;;;;;;;;;;5082845;28;20235;-67
2022/03/03 04:36:46;;;;;;;27.42;15.82;;;;;;;;;;5082299;28;20216;-67
2022/03/03 04:39:14;;;;;;;22.95;15.52;;;;;;;;;;5082905;28;20226;-67
2022/03/03 04:41:40;;;;;;;23.50;16.08;;;;;;;;;;5082715;28;20196;-67
2022/03/03 04:44:07;;;;;;;23.23;16.58;;;;;;;;;;5082629;28;20215;-67
2022/03/03 04:46:33;;;;;;;27.35;16.70;;;;;;;;;;5082436;28;20196;-67
2022/03/03 04:49:01;;;;;;;24.38;16.65;;;;;;;;;;5082561;28;20203;-67
2022/03/03 04:51:28;;;;;;;26.45;15.80;;;;;;;;;;5082348;28;20196;-67
2022/03/03 04:53:54;;;;;;;27.40;16.65;;;;;;;;;;5082777;28;20212;-67
2022/03/03 04:56:22;;;;;;;22.77;16.55;;;;;;;;;;5082280;28;20219;-67
2022/03/03 04:58:49;;;;;;;24.02;16.92;;;;;;;;;;5082623;28;20197;-67
2022/03/03 05:01:15;;;;;;;23.27;15.82;;;;;;;;;;5082413;28;20540;-67
2022/03/03 05:03:42;;;;;;;29.98;17.30;;;;;;;;;;5082821;28;20435;-67
2022/03/03 05:06:08;;;;;;;24.50;16.08;;;;;;;;;;5082014;28;20220;-67
2022/03/03 05:08:34;;;;;;;23.48;15.98;;;;;;;;;;5082465;28;20196;-67
2022/03/03 05:11:01;;;;;;;23.25;16.20;;;;;;;;;;5082576;28;20219;-67
2022/03/03 05:13:29;;;;;;;23.08;16.02;;;;;;;;;;5082186;28;20277;-67
2022/03/03 05:15:55;;;;;;;24.25;17.23;;;;;;;;;;5082260;28;20216;-66
2022/03/03 05:18:21;;;;;;;23.90;16.77;;;;;;;;;;5082401;28;20203;-67
2022/03/03 05:20:47;;;;;;;25.20;16.48;;;;;;;;;;5082175;28;20207;-67
2022/03/03 05:23:14;;;;;;;24.05;16.95;;;;;;;;;;5082463;28;20197;-67
2022/03/03 05:25:40;;;;;;;25.00;16.17;;;;;;;;;;5082132;28;20196;-67
2022/03/03 05:28:07;;;;;;;26.52;17.17;;;;;;;;;;5082030;28;20537;-67
2022/03/03 05:30:35;;;;;;;22.33;16.95;;;;;;;;;;5082090;28;20197;-67
2022/03/03 05:33:01;;;;;;;26.58;16.63;;;;;;;;;;5082182;28;20203;-67
2022/03/03 05:35:27;;;;;;;28.63;17.73;;;;;;;;;;5081929;28;20522;-67
2022/03/03 05:37:53;;;;;;;23.73;16.27;;;;;;;;;;5081626;28;20222;-67
2022/03/03 05:40:20;;;;;;;27.58;17.70;;;;;;;;;;5082072;28;20422;-67
2022/03/03 05:42:46;;;;;;;22.27;17.27;;;;;;;;;;5082022;28;20196;-67
2022/03/03 05:45:12;;;;;;;25.88;16.65;;;;;;;;;;5082036;28;20362;-66
2022/03/03 05:47:40;;;;;;;25.67;16.70;;;;;;;;;;5081687;28;20193;-66
2022/03/03 05:50:07;;;;;;;23.25;17.05;;;;;;;;;;5085558;28;20203;-66
2022/03/03 05:52:34;;;;;;;25.42;17.17;;;;;;;;;;5086074;28;20203;-66
2022/03/03 05:55:00;;;;;;;29.13;16.73;;;;;;;;;;5086127;28;20371;-66
2022/03/03 05:57:27;;;;;;;21.38;15.60;;;;;;;;;;5085594;28;20539;-66
2022/03/03 05:59:54;;;;;;;26.95;17.67;;;;;;;;;;5086309;28;20204;-66
2022/03/03 06:02:20;;;;;;;25.92;17.95;;;;;;;;;;5085694;28;20395;-67
2022/03/03 06:04:49;;;;;;;26.88;17.90;;;;;;;;;;5085613;28;20205;-66
2022/03/03 06:07:22;;;;;;;26.60;17.83;;;;;;;;;;5085568;28;20377;-67
2022/03/03 06:09:51;;;;;;;31.05;16.77;;;;;;;;;;5085670;28;20418;-67
2022/03/03 06:12:18;;;;;;;22.63;16.38;;;;;;;;;;5085546;28;20211;-66
2022/03/03 06:14:47;;;;;;;24.33;16.77;;;;;;;;;;5085399;28;20219;-66
2022/03/03 06:17:14;;;;;;;32.50;17.23;;;;;;;;;;5085579;28;20443;-66
2022/03/03 06:19:42;;;;;;;26.48;17.50;;;;;;;;;;5085618;28;20228;-66
2022/03/03 06:22:10;;;;;;;29.70;17.17;;;;;;;;;;5085472;28;20207;-66
2022/03/03 06:24:37;;;;;;;27.67;18.25;;;;;;;;;;5085372;28;20200;-66
2022/03/03 06:27:04;;;;;;;30.08;19.05;;;;;;;;;;5085066;28;20250;-66
2022/03/03 06:29:31;;;;;;;23.58;16.98;;;;;;;;;;5085146;28;20278;-66
2022/03/03 06:31:57;;;;;;;30.30;18.98;;;;;;;;;;5085177;28;20196;-66
2022/03/03 06:34:24;;;;;;;33.28;19.38;;;;;;;;;;5085297;28;20196;-67
2022/03/03 06:36:51;;;;;;;32.20;19.20;;;;;;;;;;5084971;28;20318;-67
2022/03/03 06:39:18;;;;;;;32.72;18.80;;;;;;;;;;5085174;28;20279;-67
2022/03/03 06:41:45;;;;;;;28.52;17.15;;;;;;;;;;5084977;28;20267;-66
2022/03/03 06:44:11;;;;;;;30.08;17.33;;;;;;;;;;5084838;28;20504;-66
2022/03/03 06:46:38;;;;;;;30.05;17.75;;;;;;;;;;5084701;28;20199;-66
2022/03/03 06:49:05;;;;;;;31.15;17.75;;;;;;;;;;5084801;28;20373;-66
2022/03/03 06:51:40;;;;;;;27.05;17.27;;;;;;;;;;5084881;28;20196;-66
2022/03/03 06:54:07;;;;;;;35.20;18.55;;;;;;;;;;5084740;28;20391;-66
2022/03/03 06:56:35;;;;;;;31.63;17.13;;;;;;;;;;5084285;28;20223;-66
2022/03/03 06:59:02;;;;;;;34.92;17.58;;;;;;;;;;5084508;28;20196;-66
2022/03/03 07:01:29;;;;;;;41.70;19.27;;;;;;;;;;5083606;28;20196;-66
2022/03/03 07:03:56;;;;;;;28.13;18.67;;;;;;;;;;5084704;28;20196;-66
2022/03/03 07:06:22;;;;;;;36.22;20.13;;;;;;;;;;5084395;28;20220;-66
2022/03/03 07:08:50;;;;;;;28.98;18.35;;;;;;;;;;5084412;28;20196;-66
2022/03/03 07:11:16;;;;;;;32.40;18.85;;;;;;;;;;5084215;28;20395;-66
2022/03/03 07:13:46;;;;;;;34.35;19.30;;;;;;;;;;5084493;28;20391;-66
2022/03/03 07:16:20;;;;;;;32.75;19.73;;;;;;;;;;5084278;28;20411;-66
2022/03/03 07:18:50;;;;;;;31.85;19.40;;;;;;;;;;5084361;28;20196;-66
2022/03/03 07:21:18;;;;;;;40.20;19.38;;;;;;;;;;5084250;28;20204;-66
2022/03/03 07:23:48;;;;;;;33.78;18.67;;;;;;;;;;5083940;28;20196;-66
2022/03/03 07:26:16;;;;;;;34.13;19.70;;;;;;;;;;5084179;28;20522;-66
2022/03/03 07:28:46;;;;;;;37.45;20.55;;;;;;;;;;5076841;28;20193;-59
2022/03/03 07:31:16;;;;;;;38.95;20.58;;;;;;;;;;5076226;28;20205;-59
2022/03/03 07:33:48;;;;;;;27.35;18.48;;;;;;;;;;5075444;28;20200;-59
2022/03/03 07:36:17;;;;;;;30.85;19.95;;;;;;;;;;5070680;28;20220;-59
2022/03/03 07:38:50;;;;;;;30.70;19.75;;;;;;;;;;5073550;28;20208;-60
2022/03/03 07:41:17;;;;;;;35.60;20.08;;;;;;;;;;5077866;28;20419;-60
2022/03/03 07:43:47;;;;;;;28.77;19.05;;;;;;;;;;5077934;28;20405;-60
2022/03/03 07:46:15;;;;;;;29.10;19.08;;;;;;;;;;5077230;28;20395;-60
2022/03/03 07:48:43;;;;;;;35.35;19.42;;;;;;;;;;5078046;28;20553;-59
2022/03/03 07:51:10;;;;;;;28.63;18.90;;;;;;;;;;5077834;28;20218;-59
2022/03/03 07:53:37;;;;;;;27.67;19.05;;;;;;;;;;5077699;28;20211;-59
2022/03/03 07:56:05;;;;;;;30.63;19.48;;;;;;;;;;5078624;28;20542;-62
2022/03/03 07:58:34;;;;;;;32.97;19.95;;;;;;;;;;5078565;28;20239;-60
2022/03/03 08:01:01;;;;;;;37.63;21.65;;;;;;;;;;5077474;28;20235;-61
2022/03/03 08:03:28;;;;;;;39.97;20.42;;;;;;;;;;5076455;28;20216;-60
2022/03/03 08:05:56;;;;;;;31.85;20.45;;;;;;;;;;5077417;28;20224;-61
2022/03/03 08:08:23;;;;;;;34.70;19.80;;;;;;;;;;5077997;28;20204;-60
2022/03/03 08:10:50;;;;;;;34.13;20.05;;;;;;;;;;5077399;28;20535;-61
2022/03/03 08:13:18;;;;;;;37.35;20.48;;;;;;;;;;5063374;28;20547;-60
2022/03/03 08:15:45;;;;;;;29.27;19.45;;;;;;;;;;5057680;28;20209;-60
2022/03/03 08:18:12;;;;;;;32.22;20.15;;;;;;;;;;5057540;28;20229;-61
2022/03/03 08:20:40;;;;;;;28.65;19.27;;;;;;;;;;5057628;28;20374;-60
2022/03/03 08:23:07;;;;;;;33.33;21.08;;;;;;;;;;5057102;28;20224;-61
2022/03/03 08:25:34;;;;;;;41.10;20.40;;;;;;;;;;5057723;28;20225;-60
2022/03/03 08:28:01;;;;;;;34.63;20.90;;;;;;;;;;5057117;28;20213;-60
2022/03/03 08:30:27;;;;;;;38.38;21.52;;;;;;;;;;5060334;28;20204;-61
2022/03/03 08:32:59;;;;;;;30.02;20.35;;;;;;;;;;5076998;28;20204;-62
2022/03/03 08:35:27;;;;;;;36.78;20.20;;;;;;;;;;5077640;28;20208;-62
2022/03/03 08:38:00;;;;;;;32.95;20.25;;;;;;;;;;5077183;28;20602;-61
2022/03/03 08:40:27;;;;;;;31.40;21.38;;;;;;;;;;5077157;28;20283;-61
2022/03/03 08:42:56;;;;;;;35.05;21.42;;;;;;;;;;5076891;28;20304;-60
2022/03/03 08:45:23;;;;;;;38.22;21.13;;;;;;;;;;5077028;28;20531;-60
2022/03/03 08:47:55;;;;;;;32.50;21.17;;;;;;;;;;5076571;28;20246;-60
2022/03/03 08:50:22;;;;;;;28.13;18.98;;;;;;;;;;5057535;28;20220;-60
2022/03/03 08:52:49;;;;;;;34.60;20.63;;;;;;;;;;5056512;28;20511;-60
2022/03/03 08:55:16;;;;;;;36.53;21.73;;;;;;;;;;5056311;28;20563;-60
2022/03/03 08:57:43;;;;;;;33.17;20.27;;;;;;;;;;5056295;28;20234;-60
2022/03/03 09:00:10;;;;;;;35.58;20.50;;;;;;;;;;5056291;28;20209;-61
2022/03/03 09:02:37;;;;;;;30.00;20.65;;;;;;;;;;5056027;28;20216;-61
2022/03/03 09:05:03;;;;;;;33.20;19.58;;;;;;;;;;5073816;28;20303;-61
2022/03/03 09:07:31;;;;;;;30.73;20.38;;;;;;;;;;5076509;28;20205;-60
2022/03/03 09:09:58;;;;;;;35.85;20.60;;;;;;;;;;5075895;28;20618;-60
2022/03/03 09:12:25;;;;;;;34.30;20.67;;;;;;;;;;5075938;28;20220;-60
2022/03/03 09:14:52;;;;;;;32.08;20.60;;;;;;;;;;5076084;28;20216;-59
2022/03/03 09:17:18;;;;;;;31.58;20.70;;;;;;;;;;5076033;28;20238;-60
2022/03/03 09:19:45;;;;;;;29.42;19.92;;;;;;;;;;5075588;28;20231;-59
2022/03/03 09:22:12;;;;;;;32.85;19.77;;;;;;;;;;5075427;28;20265;-62
2022/03/03 09:24:38;;;;;;;26.02;19.15;;;;;;;;;;5075315;28;20208;-61
2022/03/03 09:27:04;;;;;;;33.10;19.40;;;;;;;;;;5075716;28;20204;-61
2022/03/03 09:29:33;;;;;;;27.35;19.30;;;;;;;;;;5075521;28;20512;-61
2022/03/03 09:31:59;;;;;;;32.38;20.00;;;;;;;;;;5075624;28;20423;-62
2022/03/03 09:34:26;;;;;;;33.53;20.63;;;;;;;;;;5076192;28;20205;-62
2022/03/03 09:36:52;;;;;;;25.63;19.73;;;;;;;;;;5075710;28;20208;-61
2022/03/03 09:39:18;;;;;;;29.90;19.60;;;;;;;;;;5075550;28;20239;-61
2022/03/03 09:41:44;;;;;;;29.30;19.35;;;;;;;;;;5075748;28;20211;-61
2022/03/03 09:44:13;;;;;;;31.90;20.38;;;;;;;;;;5076130;28;20377;-61
2022/03/03 09:46:40;;;;;;;31.73;19.58;;;;;;;;;;5075794;28;20270;-61
2022/03/03 09:49:07;;;;;;;31.02;20.83;;;;;;;;;;5075893;28;20459;-61
2022/03/03 09:51:33;;;;;;;28.52;19.58;;;;;;;;;;5075284;28;20254;-60
2022/03/03 09:53:59;;;;;;;31.58;18.83;;;;;;;;;;5075908;28;20310;-61
2022/03/03 09:56:26;;;;;;;27.27;18.65;;;;;;;;;;5075542;28;20208;-61
2022/03/03 09:58:52;;;;;;;26.02;19.58;;;;;;;;;;5075871;28;20232;-60
2022/03/03 10:01:18;;;;;;;25.17;19.13;;;;;;;;;;5075948;28;20208;-60
2022/03/03 10:03:47;;;;;;;31.15;19.48;;;;;;;;;;5068127;28;20208;-60
2022/03/03 10:06:13;;;;;;;33.55;20.42;;;;;;;;;;5073514;28;20286;-60
2022/03/03 10:08:40;;;;;;;38.78;19.85;;;;;;;;;;5075891;28;20219;-60
2022/03/03 10:11:08;;;;;;;29.65;19.90;;;;;;;;;;5074992;28;20274;-60
2022/03/03 10:13:47;;;;;;;32.35;20.35;;;;;;;;;;5075790;28;20208;-61
2022/03/03 10:16:19;;;;;;;27.30;20.10;;;;;;;;;;5075459;28;20275;-61
2022/03/03 10:18:51;;;;;;;28.08;20.40;;;;;;;;;;5075792;28;20235;-60
2022/03/03 10:21:18;;;;;;;29.10;20.20;;;;;;;;;;5075865;28;20209;-61
2022/03/03 10:23:44;;;;;;;30.17;20.50;;;;;;;;;;5077142;28;20211;-61
2022/03/03 10:26:11;;;;;;;27.52;19.20;;;;;;;;;;5078309;28;20403;-59
2022/03/03 10:28:38;;;;;;;28.55;19.73;;;;;;;;;;5076432;28;20214;-61
2022/03/03 10:31:05;;;;;;;30.25;21.40;;;;;;;;;;5075476;28;20534;-60
2022/03/03 10:33:32;;;;;;;33.63;21.55;;;;;;;;;;5075956;28;20416;-61
2022/03/03 10:36:08;;;;;;;30.63;19.77;;;;;;;;;;5077498;28;20438;-61
2022/03/03 10:38:35;;;;;;;32.70;19.63;;;;;;;;;;5079591;28;20227;-60
2022/03/03 10:41:02;;;;;;;28.08;19.67;;;;;;;;;;5079079;28;20538;-61
2022/03/03 10:43:46;;;;;;;29.02;19.98;;;;;;;;;;5079768;28;20535;-61
2022/03/03 10:46:12;;;;;;;33.17;20.20;;;;;;;;;;5079574;28;20212;-60
2022/03/03 10:48:38;;;;;;;29.80;19.00;;;;;;;;;;5079662;28;20220;-61
2022/03/03 10:51:07;;;;;;;31.00;19.88;;;;;;;;;;5079495;28;20204;-62
2022/03/03 10:53:35;;;;;;;29.42;19.85;;;;;;;;;;5079399;28;20208;-60
2022/03/03 10:56:04;;;;;;;29.27;18.85;;;;;;;;;;5079246;28;20300;-59
2022/03/03 10:59:03;;;;;;;28.10;19.73;;;;;;;;;;5078792;28;20228;-60
2022/03/03 11:01:30;;;;;;;27.35;18.98;;;;;;;;;;5016878;28;20521;-60
2022/03/03 11:03:59;;;;;;;27.15;18.67;;;;;;;;;;5065545;28;20545;-59
2022/03/03 11:06:28;;;;;;;24.80;18.63;;;;;;;;;;5079229;28;20259;-60
2022/03/03 11:08:56;;;;;;;29.27;19.25;;;;;;;;;;5079704;28;20405;-60
2022/03/03 11:11:23;;;;;;;28.20;19.23;;;;;;;;;;5078890;28;20224;-60
2022/03/03 11:13:50;;;;;;;28.42;20.17;;;;;;;;;;5079843;28;20219;-60
2022/03/03 11:16:17;;;;;;;28.92;19.73;;;;;;;;;;5078952;28;20207;-61
2022/03/03 11:18:44;;;;;;;29.55;21.02;;;;;;;;;;5078864;28;20220;-61
2022/03/03 11:21:10;;;;;;;26.83;19.58;;;;;;;;;;5077838;28;20400;-61
2022/03/03 11:23:38;;;;;;;31.58;20.45;;;;;;;;;;5079017;28;20208;-61
2022/03/03 11:26:07;;;;;;;27.75;19.67;;;;;;;;;;5078663;28;20212;-61
2022/03/03 11:28:37;;;;;;;28.83;19.92;;;;;;;;;;5078783;28;20464;-61
2022/03/03 11:31:18;;;;;;;28.35;20.23;;;;;;;;;;5078208;28;20224;-61
2022/03/03 11:33:44;;;;;;;32.25;20.65;;;;;;;;;;5078314;28;20425;-61
2022/03/03 11:36:18;;;;;;;29.63;20.38;;;;;;;;;;5077679;28;20285;-61
2022/03/03 11:38:46;;;;;;;30.05;20.52;;;;;;;;;;5078142;28;20228;-61
2022/03/03 11:41:14;;;;;;;27.67;20.23;;;;;;;;;;5077949;28;20430;-60
2022/03/03 11:43:45;;;;;;;31.90;20.80;;;;;;;;;;5081511;28;20373;-60
2022/03/03 11:46:12;;;;;;;26.60;19.73;;;;;;;;;;5078401;28;20250;-62
2022/03/03 11:48:39;;;;;;;28.08;20.00;;;;;;;;;;5078352;28;20217;-60
2022/03/03 11:51:20;;;;;;;27.40;19.58;;;;;;;;;;5078014;28;20209;-60
2022/03/03 11:53:50;;;;;;;30.60;20.15;;;;;;;;;;5077960;28;20217;-60
2022/03/03 11:56:17;;;;;;;37.70;21.65;;;;;;;;;;5077510;28;20243;-60
2022/03/03 11:58:44;;;;;;;28.25;20.13;;;;;;;;;;5077718;28;20461;-61
2022/03/03 12:01:11;;;;;;;34.80;21.70;;;;;;;;;;5077428;28;20215;-61
2022/03/03 12:03:56;;;;;;;32.05;20.95;;;;;;;;;;5077902;28;20258;-61
2022/03/03 12:06:35;;;;;;;32.75;20.60;;;;;;;;;;5077263;28;20228;-61
2022/03/03 12:09:16;;;;;;;26.27;20.70;;;;;;;;;;5077417;28;20401;-61
2022/03/03 12:11:43;;;;;;;39.42;21.92;;;;;;;;;;5077645;28;20215;-60
2022/03/03 12:14:25;;;;;;;32.45;23.52;;;;;;;;;;5077711;28;20214;-59
2022/03/03 12:16:51;;;;;;;33.53;20.45;;;;;;;;;;5077114;28;20201;-60
2022/03/03 12:19:17;;;;;;;29.38;20.73;;;;;;;;;;5077635;28;20230;-59
2022/03/03 12:21:45;;;;;;;33.03;19.67;;;;;;;;;;5077288;28;20230;-60
2022/03/03 12:24:33;;;;;;;31.23;20.98;;;;;;;;;;5078038;28;20239;-59
2022/03/03 12:27:11;;;;;;;32.22;20.45;;;;;;;;;;5078010;28;20208;-60
2022/03/03 12:29:38;;;;;;;34.10;21.02;;;;;;;;;;5077349;28;20204;-59
2022/03/03 12:32:23;;;;;;;86.18;21.70;;;;;;;;;;5077124;28;20208;-61
2022/03/03 12:34:50;;;;;;;31.88;20.35;;;;;;;;;;5077860;28;20212;-60
2022/03/03 12:37:17;;;;;;;26.67;18.85;;;;;;;;;;5077235;28;20200;-60
2022/03/03 12:39:47;;;;;;;183.25;29.27;;;;;;;;;;5077006;28;20232;-61
2022/03/03 12:42:17;;;;;;;33.33;19.00;;;;;;;;;;5077318;28;20418;-61
2022/03/03 12:44:45;;;;;;;38.30;20.00;;;;;;;;;;5077493;28;20218;-57
2022/03/03 12:47:13;;;;;;;26.83;18.90;;;;;;;;;;5077423;28;20435;-60
2022/03/03 12:49:40;;;;;;;42.72;18.67;;;;;;;;;;5077107;28;20209;-60
2022/03/03 12:52:07;;;;;;;26.30;18.92;;;;;;;;;;5077115;28;20236;-60
2022/03/03 12:54:36;;;;;;;28.23;18.73;;;;;;;;;;5077051;28;20215;-59
2022/03/03 12:57:04;;;;;;;25.45;18.55;;;;;;;;;;5076671;28;20204;-61
2022/03/03 12:59:32;;;;;;;31.20;18.55;;;;;;;;;;5076107;28;20319;-60
2022/03/03 13:01:59;;;;;;;39.92;19.52;;;;;;;;;;5076927;28;20204;-61
2022/03/03 13:04:25;;;;;;;33.20;17.77;;;;;;;;;;5077221;28;20209;-60
2022/03/03 13:07:05;;;;;;;26.27;18.13;;;;;;;;;;5076800;28;20224;-60
2022/03/03 13:09:31;;;;;;;23.98;17.05;;;;;;;;;;5076513;28;20204;-58
2022/03/03 13:11:57;;;;;;;25.92;17.35;;;;;;;;;;5076692;28;20217;-60
2022/03/03 13:14:24;;;;;;;21.65;16.98;;;;;;;;;;5077070;28;20520;-60
2022/03/03 13:16:51;;;;;;;23.88;17.08;;;;;;;;;;5076843;28;20208;-58
2022/03/03 13:19:18;;;;;;;26.90;18.27;;;;;;;;;;5076697;28;20224;-61
2022/03/03 13:21:44;;;;;;;28.67;17.67;;;;;;;;;;5076694;28;20208;-60
2022/03/03 13:24:10;;;;;;;23.65;18.35;;;;;;;;;;5076677;28;20208;-59
2022/03/03 13:26:45;;;;;;;23.52;17.42;;;;;;;;;;5076731;28;20524;-61
2022/03/03 13:29:13;;;;;;;22.42;16.63;;;;;;;;;;5076604;28;20236;-61
2022/03/03 13:31:41;;;;;;;31.77;18.05;;;;;;;;;;5076298;28;20216;-61
2022/03/03 13:34:12;;;;;;;28.73;18.50;;;;;;;;;;5076704;28;20204;-61
2022/03/03 13:36:39;;;;;;;23.15;17.15;;;;;;;;;;5076061;28;20573;-61
2022/03/03 13:39:07;;;;;;;22.50;17.20;;;;;;;;;;5076530;28;20227;-60
2022/03/03 13:41:34;;;;;;;23.73;17.85;;;;;;;;;;5076298;28;20208;-59
2022/03/03 13:44:14;;;;;;;24.38;18.40;;;;;;;;;;5076503;28;20208;-61
2022/03/03 13:46:40;;;;;;;26.85;18.42;;;;;;;;;;5076419;28;20207;-61
2022/03/03 13:49:07;;;;;;;24.45;18.83;;;;;;;;;;5076098;28;20204;-62
2022/03/03 13:51:35;;;;;;;27.63;18.38;;;;;;;;;;5076262;28;20553;-62
2022/03/03 13:54:02;;;;;;;23.42;17.85;;;;;;;;;;5076531;28;20403;-61
2022/03/03 13:56:29;;;;;;;27.50;18.48;;;;;;;;;;5076330;28;20423;-61
2022/03/03 13:59:08;;;;;;;27.20;18.73;;;;;;;;;;5076770;28;20403;-62
2022/03/03 14:01:36;;;;;;;26.88;19.02;;;;;;;;;;5075910;28;20537;-62
2022/03/03 14:04:11;;;;;;;30.25;18.95;;;;;;;;;;5076616;28;20207;-61
2022/03/03 14:06:43;;;;;;;27.00;18.88;;;;;;;;;;5076201;28;20220;-62
2022/03/03 14:09:09;;;;;;;28.30;19.58;;;;;;;;;;5076626;28;20205;-60
2022/03/03 14:11:36;;;;;;;25.08;19.20;;;;;;;;;;5079658;28;20519;-60
2022/03/03 14:14:02;;;;;;;25.38;18.42;;;;;;;;;;5080217;28;20231;-60
2022/03/03 14:16:29;;;;;;;35.97;18.92;;;;;;;;;;5079772;28;20415;-61
2022/03/03 14:18:56;;;;;;;30.13;20.00;;;;;;;;;;5079995;28;20228;-60